Time;durP1;ratioP1;P1;durP2;ratioP2;P2;SDS_P1;SDS_P2;PMS_P1;PMS_P2;Temp;Humidity;BMP_temperature;BMP_pressure;BME280_temperature;BME280_humidity;BME280_pressure;Samples;Min_cycle;Max_cycle;Signal;HPM_P1;HPM_P2
2020/12/12 00:03:46;;;;;;;18.05;16.40;;;;;;;1.96;66.76;98349.28;10540170;28;20048;-65
2020/12/12 00:08:48;;;;;;;16.35;15.05;;;;;;;1.79;67.25;98346.25;10521162;28;20048;-65
2020/12/12 00:13:50;;;;;;;14.10;13.05;;;;;;;1.98;66.69;98334.53;10539402;28;20044;-64
2020/12/12 00:18:51;;;;;;;16.85;15.45;;;;;;;1.63;67.63;98336.22;10540008;28;20044;-65
2020/12/12 00:23:52;;;;;;;14.80;13.60;;;;;;;1.59;67.73;98333.72;10524512;28;20060;-64
2020/12/12 00:28:53;;;;;;;14.70;13.50;;;;;;;1.80;67.23;98332.38;10546313;28;20036;-63
2020/12/12 00:33:54;;;;;;;14.23;13.13;;;;;;;1.72;67.06;98328.22;10561557;22;20051;-71
2020/12/12 00:38:55;;;;;;;13.85;12.75;;;;;;;1.79;66.87;98328.09;10549634;28;20058;-71
2020/12/12 00:43:56;;;;;;;13.45;12.35;;;;;;;1.95;66.86;98327.69;10548411;28;20412;-69
2020/12/12 00:48:57;;;;;;;13.70;12.55;;;;;;;1.89;66.78;98333.00;10548180;28;20519;-70
2020/12/12 00:53:59;;;;;;;13.57;12.55;;;;;;;1.71;67.02;98323.94;10529375;28;20051;-71
2020/12/12 00:59:00;;;;;;;13.50;12.40;;;;;;;2.01;66.65;98331.88;10529099;28;20040;-70
2020/12/12 01:04:01;;;;;;;13.73;12.63;;;;;;;2.08;66.35;98327.38;10547385;28;20127;-70
2020/12/12 01:09:02;;;;;;;14.52;13.43;;;;;;;2.10;66.40;98335.97;10528928;28;20071;-70
2020/12/12 01:14:04;;;;;;;14.82;13.63;;;;;;;2.17;66.27;98335.81;10548829;28;20040;-70
2020/12/12 01:19:05;;;;;;;15.00;13.82;;;;;;;2.06;66.40;98331.75;10529245;28;20035;-70
2020/12/12 01:24:06;;;;;;;15.15;13.95;;;;;;;2.06;66.67;98331.75;10547058;28;20040;-70
2020/12/12 01:29:07;;;;;;;14.40;13.23;;;;;;;2.20;66.35;98332.25;10547990;28;20083;-70
2020/12/12 01:34:08;;;;;;;13.23;12.20;;;;;;;2.13;66.63;98335.91;10547865;28;20044;-71
2020/12/12 01:39:09;;;;;;;12.48;11.48;;;;;;;2.22;66.22;98341.72;10545821;28;20052;-70
2020/12/12 01:44:10;;;;;;;12.90;11.90;;;;;;;2.19;66.41;98326.22;10547330;28;20067;-71
2020/12/12 01:49:12;;;;;;;13.07;12.07;;;;;;;2.07;66.87;98343.81;10546723;28;20072;-71
2020/12/12 01:54:14;;;;;;;13.25;12.25;;;;;;;1.75;68.10;98341.13;10546718;28;20058;-71
2020/12/12 01:59:15;;;;;;;14.45;13.35;;;;;;;1.85;68.18;98338.31;10528561;28;20516;-71
2020/12/12 02:04:18;;;;;;;13.15;12.15;;;;;;;1.91;67.79;98343.38;10546639;28;20067;-70
2020/12/12 02:09:20;;;;;;;13.80;12.70;;;;;;;2.24;67.06;98339.06;10528219;28;20052;-70
2020/12/12 02:14:21;;;;;;;14.98;13.68;;;;;;;1.78;67.97;98342.78;10546284;28;20040;-69
2020/12/12 02:19:24;;;;;;;14.68;13.50;;;;;;;1.67;68.63;98343.03;10545869;28;20430;-71
2020/12/12 02:24:29;;;;;;;14.45;13.25;;;;;;;1.81;68.44;98345.28;10526333;28;20401;-70
2020/12/12 02:29:49;;;;;;;13.85;12.75;;;;;;;2.08;67.78;98346.41;10527340;28;20055;-71
2020/12/12 02:34:50;;;;;;;14.57;13.43;;;;;;;1.71;68.54;98343.81;10543544;28;20470;-70
2020/12/12 02:39:51;;;;;;;13.88;12.82;;;;;;;1.79;68.66;98347.09;10544073;28;20044;-70
2020/12/12 02:44:53;;;;;;;13.30;12.27;;;;;;;1.76;68.41;98334.19;10543737;28;20054;-71
2020/12/12 02:50:09;;;;;;;14.43;13.32;;;;;;;1.71;69.01;98333.44;10542922;28;20044;-69
2020/12/12 02:55:10;;;;;;;13.02;12.07;;;;;;;1.83;68.49;98324.56;10543738;28;20438;-71
2020/12/12 03:00:23;;;;;;;12.48;11.48;;;;;;;2.01;68.01;98331.88;10543647;28;20044;-70
2020/12/12 03:05:24;;;;;;;11.35;10.50;;;;;;;1.83;68.12;98327.16;10543979;28;20032;-71
2020/12/12 03:10:25;;;;;;;13.00;11.90;;;;;;;1.69;68.67;98336.09;10544785;28;20404;-70
2020/12/12 03:15:26;;;;;;;12.30;11.30;;;;;;;1.67;68.93;98337.00;10508587;28;20048;-71
2020/12/12 03:20:27;;;;;;;11.55;10.63;;;;;;;1.54;69.20;98328.66;10543639;28;20493;-71
2020/12/12 03:25:29;;;;;;;11.13;10.23;;;;;;;1.59;69.02;98338.91;10542402;28;20044;-71
2020/12/12 03:30:30;;;;;;;11.63;10.63;;;;;;;1.49;69.34;98335.69;10542968;28;20044;-71
2020/12/12 03:35:32;;;;;;;11.05;10.05;;;;;;;1.56;69.10;98336.41;10542182;28;20040;-70
2020/12/12 03:40:33;;;;;;;10.77;9.88;;;;;;;1.61;68.97;98342.34;10543233;28;20162;-69
2020/12/12 03:45:35;;;;;;;11.35;10.45;;;;;;;1.67;68.87;98337.84;10542173;28;20044;-71
2020/12/12 03:50:36;;;;;;;11.48;10.48;;;;;;;1.79;69.05;98334.13;10542050;28;20044;-71
2020/12/12 03:55:37;;;;;;;11.00;10.20;;;;;;;1.61;69.00;98339.75;10542588;28;20052;-71
2020/12/12 04:00:38;;;;;;;10.60;9.70;;;;;;;1.56;69.40;98329.50;10543879;28;20036;-70
2020/12/12 04:05:43;;;;;;;10.70;9.80;;;;;;;1.63;69.43;98336.22;10551608;28;20059;-71
2020/12/12 04:10:45;;;;;;;11.20;10.32;;;;;;;1.59;69.58;98336.31;10551709;28;20409;-70
2020/12/12 04:15:47;;;;;;;11.18;10.30;;;;;;;1.81;68.80;98336.69;10557621;28;20564;-70
2020/12/12 04:20:48;;;;;;;11.43;10.43;;;;;;;1.81;68.96;98334.94;10555328;28;20036;-70
2020/12/12 04:25:50;;;;;;;11.70;10.73;;;;;;;1.55;69.50;98327.78;10557417;28;20071;-70
2020/12/12 04:30:51;;;;;;;11.85;10.85;;;;;;;1.65;69.48;98329.28;10536854;28;20043;-70
2020/12/12 04:35:52;;;;;;;12.93;11.88;;;;;;;1.72;69.43;98327.38;10549818;28;20048;-70
2020/12/12 04:40:56;;;;;;;12.38;11.38;;;;;;;1.68;69.55;98324.03;10549436;28;20052;-70
2020/12/12 04:45:59;;;;;;;12.57;11.60;;;;;;;1.85;69.15;98321.03;10550439;28;20462;-71
2020/12/12 04:51:00;;;;;;;12.20;11.30;;;;;;;1.91;69.09;98312.28;10548201;28;20496;-70
2020/12/12 04:56:03;;;;;;;13.75;12.55;;;;;;;1.93;68.80;98302.69;10530685;28;20036;-70
2020/12/12 05:01:05;;;;;;;14.75;13.55;;;;;;;2.33;68.37;98301.69;10531292;28;20044;-71
2020/12/12 05:06:06;;;;;;;13.60;12.60;;;;;;;2.27;68.53;98306.16;10530829;28;20131;-71
2020/12/12 05:11:08;;;;;;;14.80;13.68;;;;;;;2.51;67.80;98306.38;10548452;28;20072;-70
2020/12/12 05:16:09;;;;;;;15.63;14.18;;;;;;;2.40;67.86;98305.84;10547886;28;20044;-71
2020/12/12 05:21:11;;;;;;;14.95;13.85;;;;;;;2.43;68.28;98305.72;10547981;28;20047;-70
2020/12/12 05:26:13;;;;;;;14.57;13.48;;;;;;;2.46;67.89;98308.25;10529750;28;20401;-70
2020/12/12 05:31:15;;;;;;;13.60;12.60;;;;;;;2.61;67.86;98309.56;10548755;28;20040;-71
2020/12/12 05:36:16;;;;;;;15.43;14.20;;;;;;;2.56;68.07;98307.09;10546922;28;20071;-70
2020/12/12 05:41:17;;;;;;;14.48;13.48;;;;;;;2.39;68.52;98298.91;10547016;28;20052;-70
2020/12/12 05:46:22;;;;;;;14.38;13.38;;;;;;;2.51;68.36;98299.44;10546547;28;20560;-70
2020/12/12 05:51:29;;;;;;;14.27;13.27;;;;;;;2.63;68.01;98294.84;10546667;28;20036;-70
2020/12/12 05:56:31;;;;;;;13.93;12.93;;;;;;;2.71;67.64;98301.50;10529283;28;20428;-69
2020/12/12 06:01:40;;;;;;;14.15;13.13;;;;;;;2.78;67.60;98295.25;10526119;28;20044;-70
2020/12/12 06:06:56;;;;;;;14.13;13.13;;;;;;;2.93;67.00;98299.16;10543729;28;20040;-70
2020/12/12 06:11:57;;;;;;;;;;;;;;;2.94;66.96;98300.84;10544846;28;20044;-68
2020/12/12 06:17:06;;;;;;;14.40;13.30;;;;;;;2.73;67.59;98310.09;10544224;28;20304;-68
2020/12/12 06:22:07;;;;;;;15.30;14.20;;;;;;;2.79;67.55;98306.50;10544064;28;20074;-69
2020/12/12 06:27:11;;;;;;;13.98;12.98;;;;;;;2.67;67.85;98301.63;10543162;28;20040;-68
2020/12/12 06:32:17;;;;;;;14.13;13.13;;;;;;;2.82;67.29;98313.31;10544123;28;20052;-68
2020/12/12 06:37:30;;;;;;;13.60;12.63;;;;;;;2.67;67.93;98312.88;10500046;22;20055;-67
2020/12/12 06:42:40;;;;;;;14.23;13.23;;;;;;;2.82;67.38;98319.38;10482482;28;20477;-66
2020/12/12 06:47:45;;;;;;;13.38;12.38;;;;;;;2.84;67.56;98316.75;10502357;28;20041;-66
2020/12/12 06:52:47;;;;;;;13.68;12.68;;;;;;;2.77;67.68;98326.44;10481961;28;20055;-66
2020/12/12 06:57:55;;;;;;;13.20;12.30;;;;;;;2.67;67.93;98335.38;10482102;28;20117;-67
2020/12/12 07:03:05;;;;;;;12.27;11.38;;;;;;;2.94;67.26;98337.19;10500441;28;20090;-66
2020/12/12 07:08:11;;;;;;;13.18;12.18;;;;;;;2.82;67.83;98340.13;10501286;28;20037;-66
2020/12/12 07:13:13;;;;;;;11.95;11.13;;;;;;;2.78;67.86;98339.34;10499613;28;20041;-66
2020/12/12 07:18:14;;;;;;;13.45;12.45;;;;;;;2.76;67.97;98345.50;10560697;22;20107;-82
2020/12/12 07:23:17;;;;;;;12.68;11.77;;;;;;;2.85;67.88;98347.84;10549986;28;20044;-83
2020/12/12 07:28:18;;;;;;;12.40;11.50;;;;;;;2.87;67.96;98352.97;10545539;28;20048;-82
2020/12/12 07:33:19;;;;;;;13.07;12.07;;;;;;;3.00;67.59;98350.00;10538753;28;20481;-82
2020/12/12 07:38:20;;;;;;;12.32;11.43;;;;;;;2.91;67.92;98352.84;10537566;28;20052;-82
2020/12/12 07:43:21;;;;;;;12.68;11.77;;;;;;;2.83;68.19;98354.78;10558277;28;20093;-83
2020/12/12 07:48:24;;;;;;;11.85;11.05;;;;;;;3.02;67.45;98363.78;10539850;28;20059;-84
2020/12/12 07:53:28;;;;;;;11.60;10.80;;;;;;;3.16;66.78;98354.75;10553986;28;20044;-85
2020/12/12 07:58:31;;;;;;;13.63;12.63;;;;;;;3.10;67.23;98363.59;10555986;28;20090;-84
2020/12/12 08:03:43;;;;;;;12.05;11.25;;;;;;;3.16;66.99;98355.59;10562637;28;20094;-86
2020/12/12 08:08:55;;;;;;;12.25;11.40;;;;;;;3.10;67.25;98370.50;10524270;28;20044;-84
2020/12/12 08:14:05;;;;;;;12.70;11.70;;;;;;;2.97;67.54;98376.06;10531595;28;20101;-85
2020/12/12 08:19:07;;;;;;;13.93;12.60;;;;;;;3.28;66.96;98373.44;10561632;28;20519;-84
2020/12/12 08:24:08;;;;;;;12.48;11.48;;;;;;;3.42;66.67;98380.81;10542767;28;20134;-86
2020/12/12 08:29:09;;;;;;;12.45;11.45;;;;;;;3.32;67.32;98391.50;10555196;28;20588;-84
2020/12/12 08:34:18;;;;;;;13.10;12.10;;;;;;;3.54;66.62;98390.84;10538720;28;20074;-84
2020/12/12 08:39:25;;;;;;;12.95;12.05;;;;;;;3.67;65.80;98399.13;10539059;28;20038;-83
2020/12/12 08:44:26;;;;;;;12.63;11.68;;;;;;;3.58;66.42;98399.38;10557612;28;20489;-82
2020/12/12 08:49:55;;;;;;;12.23;11.32;;;;;;;3.72;65.80;98401.59;10573201;28;20111;-84
2020/12/12 08:55:00;;;;;;;12.63;11.68;;;;;;;3.74;65.71;98405.84;10547564;28;20412;-84
2020/12/12 09:00:04;;;;;;;13.48;12.48;;;;;;;3.58;66.39;98414.13;10530515;28;20134;-83
2020/12/12 09:05:11;;;;;;;12.77;11.88;;;;;;;3.84;65.83;98432.41;10567940;28;20042;-86
2020/12/12 09:10:13;;;;;;;14.25;13.25;;;;;;;4.01;65.46;98430.13;10546624;28;20434;-85
2020/12/12 09:15:15;;;;;;;15.13;14.02;;;;;;;3.92;65.85;98435.63;10549419;28;20044;-83
2020/12/12 09:20:16;;;;;;;15.77;14.57;;;;;;;3.95;66.12;98440.72;10535182;28;20112;-84
2020/12/12 09:25:17;;;;;;;17.85;16.55;;;;;;;4.42;64.65;98438.38;10529195;28;20135;-81
2020/12/12 09:30:18;;;;;;;17.48;16.17;;;;;;;4.51;64.66;98450.22;10564663;28;20096;-85
2020/12/12 09:35:19;;;;;;;19.30;17.90;;;;;;;4.43;64.87;98449.66;10546080;28;20056;-80
2020/12/12 09:40:20;;;;;;;19.98;18.42;;;;;;;4.68;64.79;98460.94;10561707;28;20037;-84
2020/12/12 09:45:21;;;;;;;19.63;18.23;;;;;;;4.93;63.62;98465.34;10548325;28;20044;-84
2020/12/12 09:50:33;;;;;;;18.02;16.75;;;;;;;5.20;63.09;98461.78;10581484;28;20449;-84
2020/12/12 09:55:36;;;;;;;18.27;16.88;;;;;;;5.16;63.55;98464.53;10563485;28;20072;-80
2020/12/12 10:00:38;;;;;;;17.52;16.23;;;;;;;5.28;63.31;98464.13;10578298;28;20043;-81
2020/12/12 10:05:39;;;;;;;17.90;16.58;;;;;;;5.31;63.30;98464.88;10572525;28;20422;-79
2020/12/12 10:10:41;;;;;;;18.45;17.15;;;;;;;5.14;64.00;98474.19;10575917;28;20044;-81
2020/12/12 10:15:43;;;;;;;18.42;17.13;;;;;;;5.26;63.89;98473.72;10574205;28;20414;-81
2020/12/12 10:20:44;;;;;;;16.70;15.50;;;;;;;5.49;62.90;98468.56;10574562;28;20048;-81
2020/12/12 10:25:46;;;;;;;16.42;15.30;;;;;;;5.24;64.01;98470.34;10555939;28;20040;-79
2020/12/12 10:30:47;;;;;;;17.00;15.80;;;;;;;5.65;62.20;98470.59;10552272;28;20052;-78
2020/12/12 10:35:48;;;;;;;16.58;15.27;;;;;;;5.28;63.51;98471.94;10563468;28;20392;-83
2020/12/12 10:41:00;;;;;;;15.57;14.38;;;;;;;5.56;63.40;98477.84;10572800;28;20040;-81
2020/12/12 10:46:02;;;;;;;15.43;14.32;;;;;;;5.48;62.33;98479.03;10567057;28;20048;-86
2020/12/12 10:51:03;;;;;;;15.48;14.38;;;;;;;5.52;62.15;98473.66;10547499;28;20052;-84
2020/12/12 10:56:04;;;;;;;14.93;13.82;;;;;;;5.87;60.60;98468.03;10541170;28;20051;-83
2020/12/12 11:01:05;;;;;;;16.77;15.57;;;;;;;5.97;61.50;98478.09;10540672;28;20040;-84
2020/12/12 11:06:07;;;;;;;14.68;13.57;;;;;;;6.12;60.96;98466.25;10543066;28;20051;-84
2020/12/12 11:11:08;;;;;;;14.90;13.82;;;;;;;6.28;60.64;98469.09;10543317;28;20048;-84
2020/12/12 11:16:26;;;;;;;14.93;13.90;;;;;;;6.31;60.71;98463.75;10544102;28;20039;-82
2020/12/12 11:21:28;;;;;;;14.75;13.48;;;;;;;6.24;60.49;98471.00;10525924;28;20135;-85
2020/12/12 11:26:29;;;;;;;13.90;13.00;;;;;;;6.48;59.81;98460.47;10549325;28;20048;-82
2020/12/12 11:31:30;;;;;;;13.25;12.27;;;;;;;6.50;59.89;98463.84;10557420;28;20048;-83
2020/12/12 11:47:11;;;;;;;12.25;11.35;;;;;;;6.46;60.08;98476.22;10557781;28;20044;-82
2020/12/12 11:52:12;;;;;;;12.80;11.90;;;;;;;6.43;58.98;98467.66;10571882;28;20048;-83
2020/12/12 11:57:13;;;;;;;12.77;11.68;;;;;;;6.22;60.61;98471.94;10555263;28;20044;-82
2020/12/12 12:02:14;;;;;;;12.70;11.52;;;;;;;6.64;58.56;98471.13;10571199;28;20052;-80
2020/12/12 12:07:19;;;;;;;10.65;9.80;;;;;;;6.71;57.52;98481.28;10568866;28;20036;-83
2020/12/12 12:12:20;;;;;;;10.57;9.57;;;;;;;6.60;58.24;98469.56;10570101;28;20040;-83
2020/12/12 12:17:22;;;;;;;10.82;9.93;;;;;;;6.45;58.79;98477.09;10575277;28;20044;-83
2020/12/12 12:22:23;;;;;;;11.32;9.63;;;;;;;6.38;57.96;98477.44;10585469;28;20043;-84
2020/12/12 12:27:24;;;;;;;9.98;9.18;;;;;;;5.90;59.34;98478.38;10598745;28;20117;-83
2020/12/12 12:32:26;;;;;;;10.30;9.52;;;;;;;6.09;59.88;98489.81;10579587;28;20043;-84
2020/12/12 12:37:27;;;;;;;10.85;9.95;;;;;;;6.13;58.67;98486.19;10373178;22;20070;-65
2020/12/12 12:42:28;;;;;;;10.10;9.38;;;;;;;5.96;60.16;98492.03;10363602;28;20457;-65
2020/12/12 12:47:29;;;;;;;10.38;9.57;;;;;;;5.81;60.63;98492.59;10363113;28;20046;-66
2020/12/12 12:52:31;;;;;;;10.00;9.20;;;;;;;6.12;59.85;98496.69;10381723;28;20125;-65
2020/12/12 12:57:32;;;;;;;10.95;10.13;;;;;;;6.37;59.54;98489.59;10373056;28;20064;-63
2020/12/12 13:02:33;;;;;;;9.45;8.68;;;;;;;6.49;58.33;98490.88;10380683;28;20120;-66
2020/12/12 13:07:35;;;;;;;11.10;10.20;;;;;;;6.23;59.44;98494.50;10355251;28;20049;-67
2020/12/12 13:12:36;;;;;;;10.15;9.45;;;;;;;6.35;58.89;98501.88;10380381;28;20046;-65
2020/12/12 13:17:38;;;;;;;10.00;9.20;;;;;;;6.23;59.10;98503.19;10379542;28;20052;-66
2020/12/12 13:22:39;;;;;;;9.63;8.82;;;;;;;5.74;60.91;98510.22;10379668;28;20455;-64
2020/12/12 13:27:41;;;;;;;8.85;8.07;;;;;;;5.83;60.97;98511.63;10380553;28;20385;-65
2020/12/12 13:32:43;;;;;;;9.02;8.32;;;;;;;5.98;60.72;98520.69;10381280;28;20346;-65
2020/12/12 13:37:45;;;;;;;9.95;9.15;;;;;;;5.61;62.14;98524.59;10379324;28;20048;-65
2020/12/12 13:42:46;;;;;;;10.65;9.82;;;;;;;5.66;62.59;98529.66;10355195;28;20080;-66
2020/12/12 13:47:47;;;;;;;12.60;11.57;;;;;;;5.46;62.47;98538.19;10379143;28;20042;-65
2020/12/12 13:52:53;;;;;;;15.02;12.32;;;;;;;5.37;63.20;98546.31;10377953;28;20488;-64
2020/12/12 13:57:54;;;;;;;14.20;13.10;;;;;;;5.46;63.25;98546.84;10377111;28;20045;-65
2020/12/12 14:02:55;;;;;;;14.75;13.43;;;;;;;5.35;63.90;98555.94;10377172;28;20063;-65
2020/12/12 14:07:57;;;;;;;14.38;13.25;;;;;;;5.18;63.93;98559.09;10377547;28;20050;-66
2020/12/12 14:23:40;;;;;;;15.82;14.48;;;;;;;4.97;65.08;98577.16;10375532;28;20048;-66
2020/12/12 14:28:41;;;;;;;16.15;14.82;;;;;;;5.00;65.50;98592.69;10375693;28;20113;-66
2020/12/12 14:33:43;;;;;;;17.00;15.63;;;;;;;5.12;65.08;98577.53;10351440;28;20049;-65
2020/12/12 14:38:44;;;;;;;16.67;15.18;;;;;;;5.12;65.41;98588.81;10375227;28;20495;-65
2020/12/12 14:43:45;;;;;;;17.45;15.85;;;;;;;5.09;65.29;98596.75;10352136;28;20068;-65
2020/12/12 14:48:47;;;;;;;15.30;13.90;;;;;;;5.08;65.07;98600.22;10374201;28;20052;-66
2020/12/12 14:53:49;;;;;;;15.52;14.23;;;;;;;4.89;65.72;98599.97;10374953;28;20100;-64
2020/12/12 14:58:50;;;;;;;13.75;12.65;;;;;;;4.71;66.03;98609.22;10375878;28;20042;-64
2020/12/12 15:03:51;;;;;;;16.08;14.88;;;;;;;4.59;66.42;98626.94;10374939;28;20557;-64
2020/12/12 15:08:52;;;;;;;14.52;13.38;;;;;;;4.58;66.39;98625.25;10374947;28;20041;-65
2020/12/12 15:13:53;;;;;;;14.45;13.15;;;;;;;4.53;66.27;98628.84;10353223;28;20050;-65
2020/12/12 15:18:57;;;;;;;16.38;15.00;;;;;;;4.61;66.44;98639.03;10352412;28;20108;-64
2020/12/12 15:23:59;;;;;;;17.75;14.45;;;;;;;4.53;66.35;98644.47;10375349;28;20455;-66
2020/12/12 15:29:02;;;;;;;18.20;16.55;;;;;;;4.86;65.46;98646.94;10375351;28;20045;-64
2020/12/12 15:34:03;;;;;;;14.82;13.52;;;;;;;4.76;65.47;98650.72;10375635;28;20481;-64
2020/12/12 15:39:05;;;;;;;15.57;14.27;;;;;;;4.69;65.72;98659.59;10375264;28;20041;-65
2020/12/12 15:44:06;;;;;;;18.10;16.50;;;;;;;4.59;65.97;98660.78;10374452;28;20085;-65
2020/12/12 15:49:09;;;;;;;16.85;15.35;;;;;;;4.63;65.66;98665.84;10374484;28;20456;-65
2020/12/12 15:54:11;;;;;;;16.67;15.30;;;;;;;4.79;65.31;98666.25;10373525;28;20046;-65
2020/12/12 15:59:14;;;;;;;17.17;15.75;;;;;;;4.65;65.97;98671.00;10379391;28;20042;-65
2020/12/12 16:04:15;;;;;;;16.27;15.05;;;;;;;4.72;65.49;98685.56;10381518;28;20130;-65
2020/12/12 16:09:16;;;;;;;18.00;16.50;;;;;;;4.76;65.28;98689.78;10381764;28;20125;-66
2020/12/12 16:14:17;;;;;;;19.35;17.65;;;;;;;4.81;65.02;98695.69;10381686;28;20084;-65
2020/12/12 16:19:18;;;;;;;22.25;20.13;;;;;;;4.61;65.71;98695.44;10381349;28;20048;-64
2020/12/12 16:24:20;;;;;;;30.60;27.10;;;;;;;4.59;65.67;98708.47;10381630;28;20356;-65
2020/12/12 16:29:21;;;;;;;27.63;25.15;;;;;;;4.60;65.71;98704.97;10381338;28;20048;-65
2020/12/12 16:34:23;;;;;;;28.25;25.77;;;;;;;4.55;65.94;98712.06;10380779;28;20054;-65
2020/12/12 16:39:24;;;;;;;25.00;22.80;;;;;;;4.60;65.61;98717.13;10380609;28;20072;-65
2020/12/12 16:44:25;;;;;;;19.42;17.83;;;;;;;4.78;64.68;98719.19;10362784;28;20061;-66
2020/12/12 16:49:27;;;;;;;19.50;17.90;;;;;;;4.73;64.93;98721.09;10382821;28;20046;-65
2020/12/12 16:54:28;;;;;;;16.23;14.93;;;;;;;4.83;64.42;98732.13;10363561;28;20081;-66
2020/12/12 16:59:29;;;;;;;17.05;15.45;;;;;;;4.83;64.63;98737.31;10378413;28;20430;-66
2020/12/12 17:04:31;;;;;;;18.10;16.70;;;;;;;4.79;64.77;98740.00;10354697;28;20046;-67
2020/12/12 17:09:33;;;;;;;19.27;17.70;;;;;;;4.76;65.15;98742.69;10370692;28;20073;-67
2020/12/12 17:14:35;;;;;;;24.00;21.73;;;;;;;4.57;65.86;98744.13;10379906;28;20042;-64
2020/12/12 17:19:36;;;;;;;17.92;16.52;;;;;;;4.73;65.04;98736.72;10380070;28;20042;-66
2020/12/12 17:24:37;;;;;;;17.33;15.90;;;;;;;4.69;65.09;98753.31;10380106;28;20112;-62
2020/12/12 17:29:41;;;;;;;20.42;18.63;;;;;;;4.67;65.18;98758.56;10380370;28;20042;-65
2020/12/12 17:34:42;;;;;;;18.83;17.13;;;;;;;4.68;65.06;98757.66;10357289;28;20496;-65
2020/12/12 17:39:43;;;;;;;17.83;16.33;;;;;;;4.63;65.23;98761.31;10382796;28;20104;-66
2020/12/12 17:44:44;;;;;;;17.75;16.35;;;;;;;4.65;65.45;98770.78;10379964;28;20046;-65
2020/12/12 17:49:46;;;;;;;19.15;17.55;;;;;;;4.71;65.24;98772.34;10378474;28;20100;-65
2020/12/12 17:54:47;;;;;;;19.45;17.75;;;;;;;4.86;64.89;98777.09;10378269;28;20153;-65
2020/12/12 17:59:48;;;;;;;20.70;19.10;;;;;;;4.75;65.51;98780.03;10377970;28;20108;-65
2020/12/12 18:04:49;;;;;;;21.70;19.80;;;;;;;4.91;64.99;98783.03;10353700;28;20049;-66
2020/12/12 18:09:50;;;;;;;21.80;19.88;;;;;;;4.84;65.23;98791.94;10354475;28;20049;-65
2020/12/12 18:14:52;;;;;;;22.13;20.00;;;;;;;4.76;65.29;98791.28;10376864;28;20516;-65
2020/12/12 18:19:53;;;;;;;21.83;19.92;;;;;;;4.82;65.39;98793.72;10377612;28;20072;-65
2020/12/12 18:24:54;;;;;;;23.95;21.63;;;;;;;4.61;66.18;98799.53;10377779;28;20045;-65
2020/12/12 18:29:56;;;;;;;21.88;19.88;;;;;;;4.75;65.69;98797.41;10376442;28;20092;-65
2020/12/12 18:34:57;;;;;;;23.60;21.38;;;;;;;4.83;65.73;98811.06;10421486;22;20040;-68
2020/12/12 18:39:58;;;;;;;23.92;21.85;;;;;;;4.75;65.58;98808.66;10458872;28;20061;-67
2020/12/12 18:45:00;;;;;;;25.25;22.88;;;;;;;4.63;66.05;98814.22;10460815;28;20414;-68
2020/12/12 18:50:04;;;;;;;24.77;22.63;;;;;;;4.72;65.87;98820.91;10461679;28;20041;-69
2020/12/12 18:55:06;;;;;;;26.15;23.42;;;;;;;4.60;66.07;98823.84;10443988;28;20041;-68
2020/12/12 19:00:09;;;;;;;24.98;22.95;;;;;;;4.82;65.68;98835.38;10461829;28;20075;-67
2020/12/12 19:05:11;;;;;;;23.42;21.40;;;;;;;4.86;65.47;98842.19;10461904;28;20040;-69
2020/12/12 19:10:13;;;;;;;24.20;22.05;;;;;;;4.76;66.00;98849.41;10460108;28;20037;-67
2020/12/12 19:15:15;;;;;;;25.13;23.02;;;;;;;4.81;65.62;98851.91;10460695;28;20045;-68
2020/12/12 19:20:17;;;;;;;25.27;23.02;;;;;;;4.63;66.41;98857.59;10458295;28;20041;-67
2020/12/12 19:25:19;;;;;;;24.40;21.65;;;;;;;4.70;66.00;98865.22;10459940;28;20440;-68
2020/12/12 19:30:20;;;;;;;24.15;21.98;;;;;;;4.53;66.33;98867.41;10459923;28;20051;-69
2020/12/12 19:35:22;;;;;;;24.38;22.20;;;;;;;4.53;66.48;98862.19;10459317;28;20073;-67
2020/12/12 19:40:24;;;;;;;23.17;21.23;;;;;;;4.66;66.28;98874.00;10459118;28;20112;-68
2020/12/12 19:45:25;;;;;;;24.75;22.23;;;;;;;4.57;66.38;98874.25;10459786;28;20053;-68
2020/12/12 19:50:28;;;;;;;22.48;20.27;;;;;;;4.52;66.54;98892.56;10459312;28;20056;-67
2020/12/12 19:55:31;;;;;;;21.15;19.40;;;;;;;4.66;65.91;98892.22;10460874;28;20418;-68
2020/12/12 20:00:32;;;;;;;22.38;20.27;;;;;;;4.70;65.71;98893.84;10433831;28;20094;-68
2020/12/12 20:05:35;;;;;;;20.55;18.80;;;;;;;4.70;65.72;98896.44;10441124;28;20049;-68
2020/12/12 20:10:40;;;;;;;21.35;19.67;;;;;;;4.84;65.06;98901.28;10441831;28;20120;-68
2020/12/12 20:15:42;;;;;;;20.83;18.90;;;;;;;4.68;65.44;98911.25;10442572;28;20059;-68
2020/12/12 20:20:44;;;;;;;21.25;19.42;;;;;;;4.66;65.55;98915.66;10459820;28;20048;-68
2020/12/12 20:25:45;;;;;;;21.45;19.70;;;;;;;4.66;65.64;98915.66;10459932;28;20072;-69
2020/12/12 20:30:47;;;;;;;20.88;19.08;;;;;;;4.60;65.96;98910.56;10443709;28;20044;-68
2020/12/12 20:35:48;;;;;;;21.40;19.50;;;;;;;4.72;65.76;98905.06;10442001;28;20437;-69
2020/12/12 20:40:49;;;;;;;23.02;21.02;;;;;;;4.52;66.46;98912.53;10441561;28;20045;-69
2020/12/12 20:45:51;;;;;;;23.95;21.70;;;;;;;4.67;66.02;98916.50;10462770;28;20043;-67
2020/12/12 20:50:52;;;;;;;29.02;26.40;;;;;;;4.55;66.55;98912.44;10448852;28;20144;-67
2020/12/12 20:55:53;;;;;;;24.25;22.02;;;;;;;4.55;66.53;98926.31;10465810;28;20521;-67
2020/12/12 21:00:54;;;;;;;23.02;21.13;;;;;;;4.74;65.95;98928.47;10465698;28;20044;-69
2020/12/12 21:05:56;;;;;;;23.13;21.13;;;;;;;4.71;66.07;98931.16;10467053;28;20466;-67
2020/12/12 21:10:58;;;;;;;23.75;21.65;;;;;;;4.73;66.08;98938.00;10465837;28;20498;-68
2020/12/12 21:15:59;;;;;;;25.55;23.40;;;;;;;4.74;66.28;98934.53;10466890;28;20079;-68
2020/12/12 21:21:01;;;;;;;23.50;21.23;;;;;;;4.69;66.72;98938.13;10464473;28;20474;-69
2020/12/12 21:26:06;;;;;;;25.52;21.23;;;;;;;4.73;66.22;98938.00;10466413;28;20041;-68
2020/12/12 21:31:07;;;;;;;24.85;22.42;;;;;;;4.46;67.29;98946.50;10464924;28;20064;-70
2020/12/12 21:36:10;;;;;;;24.52;22.15;;;;;;;4.45;67.41;98950.84;10465979;28;20125;-68
2020/12/12 21:41:11;;;;;;;24.73;22.48;;;;;;;4.47;67.46;98964.72;10464750;28;20056;-68
2020/12/12 21:46:12;;;;;;;24.67;22.42;;;;;;;4.64;67.35;98960.81;10465497;28;20118;-68
2020/12/12 21:51:14;;;;;;;24.10;21.67;;;;;;;4.57;67.59;98961.88;10464747;28;20090;-68
2020/12/12 21:56:15;;;;;;;24.55;22.45;;;;;;;4.60;67.33;98970.44;10463959;28;20049;-68
2020/12/12 22:01:18;;;;;;;24.48;22.20;;;;;;;4.66;67.41;98972.91;10447001;28;20045;-68
2020/12/12 22:06:47;;;;;;;24.80;22.45;;;;;;;4.45;68.28;98981.22;10464123;28;20058;-68
2020/12/12 22:11:49;;;;;;;31.95;23.58;;;;;;;4.41;68.34;98987.41;10464071;28;20044;-68
2020/12/12 22:16:54;;;;;;;25.35;22.75;;;;;;;4.44;68.49;98989.94;10463908;28;20033;-67
2020/12/12 22:21:55;;;;;;;26.73;23.85;;;;;;;4.62;67.91;98988.66;10463339;28;20421;-67
2020/12/12 22:27:00;;;;;;;23.92;21.75;;;;;;;4.45;68.41;99002.06;10461681;28;20045;-67
2020/12/12 22:32:01;;;;;;;26.40;23.67;;;;;;;4.45;68.64;99000.31;10461671;28;20045;-67
2020/12/12 22:37:03;;;;;;;26.95;24.23;;;;;;;4.47;68.82;99002.84;10461376;28;20394;-67
2020/12/12 22:42:05;;;;;;;25.25;23.00;;;;;;;4.55;68.25;99000.94;10461022;28;20103;-67
2020/12/12 22:47:06;;;;;;;26.63;23.92;;;;;;;4.64;68.10;99015.47;10460926;28;20049;-70
2020/12/12 22:52:09;;;;;;;25.20;22.90;;;;;;;4.47;68.58;99015.88;10460963;28;20136;-67
2020/12/12 22:57:11;;;;;;;25.40;23.02;;;;;;;4.59;68.26;99017.34;10460734;28;20572;-68
2020/12/12 23:02:12;;;;;;;25.65;23.08;;;;;;;4.59;68.26;99015.59;10461946;28;20402;-67
2020/12/12 23:07:14;;;;;;;27.50;24.83;;;;;;;4.55;68.54;99024.34;10459224;28;20036;-68
2020/12/12 23:12:15;;;;;;;26.17;23.42;;;;;;;4.59;68.22;99025.16;10460341;28;20063;-68
2020/12/12 23:17:16;;;;;;;25.48;22.98;;;;;;;4.46;68.70;99034.97;10441725;28;20128;-68
2020/12/12 23:22:17;;;;;;;26.73;23.95;;;;;;;4.45;68.53;99038.47;10458779;28;20037;-68
2020/12/12 23:27:19;;;;;;;25.90;22.95;;;;;;;4.49;68.53;99037.53;10459065;28;20064;-68
2020/12/12 23:32:20;;;;;;;29.77;25.55;;;;;;;4.58;68.18;99036.44;10459302;28;20044;-69
2020/12/12 23:37:22;;;;;;;27.15;24.40;;;;;;;4.52;68.20;99034.84;10440360;28;20033;-69